sensor_id;sensor_type;location;lat;lon;timestamp;temperature;humidity
45339;DHT22;31071;51.478;5.710;2023-06-22T00:00:54;21.00;99.90
45339;DHT22;31071;51.478;5.710;2023-06-22T00:03:21;18.90;99.90
45339;DHT22;31071;51.478;5.710;2023-06-22T00:05:47;20.00;99.90
45339;DHT22;31071;51.478;5.710;2023-06-22T00:08:14;19.00;99.90
45339;DHT22;31071;51.478;5.710;2023-06-22T00:10:40;18.70;99.90
45339;DHT22;31071;51.478;5.710;2023-06-22T00:13:07;19.00;99.90
45339;DHT22;31071;51.478;5.710;2023-06-22T00:15:33;19.00;99.90
45339;DHT22;31071;51.478;5.710;2023-06-22T00:17:59;18.90;99.90
45339;DHT22;31071;51.478;5.710;2023-06-22T00:20:26;18.90;99.90
45339;DHT22;31071;51.478;5.710;2023-06-22T00:22:56;19.20;99.90
45339;DHT22;31071;51.478;5.710;2023-06-22T00:25:22;19.00;99.90
45339;DHT22;31071;51.478;5.710;2023-06-22T00:27:48;18.80;99.90
45339;DHT22;31071;51.478;5.710;2023-06-22T00:30:15;19.80;99.90
45339;DHT22;31071;51.478;5.710;2023-06-22T00:32:42;20.00;99.90
45339;DHT22;31071;51.478;5.710;2023-06-22T00:35:07;20.10;99.90
45339;DHT22;31071;51.478;5.710;2023-06-22T00:37:34;18.70;99.90
45339;DHT22;31071;51.478;5.710;2023-06-22T00:40:01;19.40;99.90
45339;DHT22;31071;51.478;5.710;2023-06-22T00:42:27;18.80;99.90
45339;DHT22;31071;51.478;5.710;2023-06-22T00:44:52;18.70;99.90
45339;DHT22;31071;51.478;5.710;2023-06-22T00:47:18;18.70;99.90
45339;DHT22;31071;51.478;5.710;2023-06-22T00:49:44;20.70;99.90
45339;DHT22;31071;51.478;5.710;2023-06-22T00:52:12;20.20;99.90
45339;DHT22;31071;51.478;5.710;2023-06-22T00:54:40;19.60;99.90
45339;DHT22;31071;51.478;5.710;2023-06-22T00:57:14;18.60;99.90
45339;DHT22;31071;51.478;5.710;2023-06-22T00:59:43;20.30;99.90
45339;DHT22;31071;51.478;5.710;2023-06-22T01:02:09;19.20;99.90
45339;DHT22;31071;51.478;5.710;2023-06-22T01:04:36;18.90;99.90
45339;DHT22;31071;51.478;5.710;2023-06-22T01:07:30;18.30;99.90
45339;DHT22;31071;51.478;5.710;2023-06-22T01:12:34;18.60;99.90
45339;DHT22;31071;51.478;5.710;2023-06-22T01:15:14;19.90;99.90
45339;DHT22;31071;51.478;5.710;2023-06-22T01:17:41;18.60;99.90
45339;DHT22;31071;51.478;5.710;2023-06-22T01:20:09;18.50;99.90
45339;DHT22;31071;51.478;5.710;2023-06-22T01:25:28;18.50;99.90
45339;DHT22;31071;51.478;5.710;2023-06-22T01:28:24;18.40;99.90
45339;DHT22;31071;51.478;5.710;2023-06-22T01:30:51;18.50;99.90
45339;DHT22;31071;51.478;5.710;2023-06-22T01:33:29;20.40;99.90
45339;DHT22;31071;51.478;5.710;2023-06-22T01:35:57;20.00;99.90
45339;DHT22;31071;51.478;5.710;2023-06-22T01:38:23;18.60;99.90
45339;DHT22;31071;51.478;5.710;2023-06-22T01:40:49;18.60;99.90
45339;DHT22;31071;51.478;5.710;2023-06-22T01:43:15;20.40;99.90
45339;DHT22;31071;51.478;5.710;2023-06-22T01:45:42;20.80;99.90
45339;DHT22;31071;51.478;5.710;2023-06-22T01:48:08;18.70;99.90
45339;DHT22;31071;51.478;5.710;2023-06-22T01:50:34;19.20;99.90
45339;DHT22;31071;51.478;5.710;2023-06-22T01:52:59;18.50;99.90
45339;DHT22;31071;51.478;5.710;2023-06-22T01:55:25;19.70;99.90
45339;DHT22;31071;51.478;5.710;2023-06-22T01:57:50;20.20;99.90
45339;DHT22;31071;51.478;5.710;2023-06-22T02:00:20;19.30;99.90
45339;DHT22;31071;51.478;5.710;2023-06-22T02:02:59;19.00;99.90
45339;DHT22;31071;51.478;5.710;2023-06-22T02:05:31;18.90;99.90
45339;DHT22;31071;51.478;5.710;2023-06-22T02:08:20;19.90;99.90
45339;DHT22;31071;51.478;5.710;2023-06-22T02:10:47;18.30;99.90
45339;DHT22;31071;51.478;5.710;2023-06-22T02:13:14;18.20;99.90
45339;DHT22;31071;51.478;5.710;2023-06-22T02:15:40;19.20;99.90
45339;DHT22;31071;51.478;5.710;2023-06-22T02:18:07;19.50;99.90
45339;DHT22;31071;51.478;5.710;2023-06-22T02:20:32;18.50;99.90
45339;DHT22;31071;51.478;5.710;2023-06-22T02:23:01;20.00;99.90
45339;DHT22;31071;51.478;5.710;2023-06-22T02:25:26;18.30;99.90
45339;DHT22;31071;51.478;5.710;2023-06-22T02:27:52;20.20;99.90
45339;DHT22;31071;51.478;5.710;2023-06-22T02:30:17;20.20;99.90
45339;DHT22;31071;51.478;5.710;2023-06-22T02:32:43;19.00;99.90
45339;DHT22;31071;51.478;5.710;2023-06-22T02:35:09;19.00;99.90
45339;DHT22;31071;51.478;5.710;2023-06-22T02:37:36;18.80;99.90
45339;DHT22;31071;51.478;5.710;2023-06-22T02:40:07;19.50;99.90
45339;DHT22;31071;51.478;5.710;2023-06-22T02:42:34;18.30;99.90
45339;DHT22;31071;51.478;5.710;2023-06-22T02:45:00;20.40;99.90
45339;DHT22;31071;51.478;5.710;2023-06-22T02:47:26;18.30;99.90
45339;DHT22;31071;51.478;5.710;2023-06-22T02:49:51;17.00;99.90
45339;DHT22;31071;51.478;5.710;2023-06-22T02:52:17;18.40;99.90
45339;DHT22;31071;51.478;5.710;2023-06-22T02:54:42;19.80;99.90
45339;DHT22;31071;51.478;5.710;2023-06-22T02:57:10;19.50;99.90
45339;DHT22;31071;51.478;5.710;2023-06-22T02:59:39;20.10;99.90
45339;DHT22;31071;51.478;5.710;2023-06-22T03:02:06;20.10;99.90
45339;DHT22;31071;51.478;5.710;2023-06-22T03:04:32;18.70;99.90
45339;DHT22;31071;51.478;5.710;2023-06-22T03:06:57;19.00;99.90
45339;DHT22;31071;51.478;5.710;2023-06-22T03:09:27;18.30;99.90
45339;DHT22;31071;51.478;5.710;2023-06-22T03:11:53;19.20;99.90
45339;DHT22;31071;51.478;5.710;2023-06-22T03:14:19;19.50;99.90
45339;DHT22;31071;51.478;5.710;2023-06-22T03:16:44;19.00;99.90
45339;DHT22;31071;51.478;5.710;2023-06-22T03:19:10;19.60;99.90
45339;DHT22;31071;51.478;5.710;2023-06-22T03:21:38;19.20;99.90
45339;DHT22;31071;51.478;5.710;2023-06-22T03:24:07;20.00;99.90
45339;DHT22;31071;51.478;5.710;2023-06-22T03:26:33;18.20;99.90
45339;DHT22;31071;51.478;5.710;2023-06-22T03:28:59;19.50;99.90
45339;DHT22;31071;51.478;5.710;2023-06-22T03:31:25;19.00;99.90
45339;DHT22;31071;51.478;5.710;2023-06-22T03:33:51;19.80;99.90
45339;DHT22;31071;51.478;5.710;2023-06-22T03:36:17;20.20;99.90
45339;DHT22;31071;51.478;5.710;2023-06-22T03:38:49;19.30;99.90
45339;DHT22;31071;51.478;5.710;2023-06-22T03:41:15;19.90;99.90
45339;DHT22;31071;51.478;5.710;2023-06-22T03:43:41;19.40;99.90
45339;DHT22;31071;51.478;5.710;2023-06-22T03:46:07;18.00;99.90
45339;DHT22;31071;51.478;5.710;2023-06-22T03:48:33;19.60;99.90
45339;DHT22;31071;51.478;5.710;2023-06-22T03:51:02;20.00;99.90
45339;DHT22;31071;51.478;5.710;2023-06-22T03:53:28;19.50;99.90
45339;DHT22;31071;51.478;5.710;2023-06-22T03:55:54;18.40;99.90
45339;DHT22;31071;51.478;5.710;2023-06-22T03:58:21;19.10;99.90
45339;DHT22;31071;51.478;5.710;2023-06-22T04:00:51;18.80;99.90
45339;DHT22;31071;51.478;5.710;2023-06-22T04:03:17;20.70;99.90
45339;DHT22;31071;51.478;5.710;2023-06-22T04:05:46;18.90;99.90
45339;DHT22;31071;51.478;5.710;2023-06-22T04:08:14;18.40;99.90
45339;DHT22;31071;51.478;5.710;2023-06-22T04:10:40;19.00;99.90
45339;DHT22;31071;51.478;5.710;2023-06-22T04:13:06;18.90;99.90
45339;DHT22;31071;51.478;5.710;2023-06-22T04:15:32;19.70;99.90
45339;DHT22;31071;51.478;5.710;2023-06-22T04:17:57;20.40;99.90
45339;DHT22;31071;51.478;5.710;2023-06-22T04:20:23;20.30;99.90
45339;DHT22;31071;51.478;5.710;2023-06-22T04:22:54;20.20;99.90
45339;DHT22;31071;51.478;5.710;2023-06-22T04:25:20;20.00;99.90
45339;DHT22;31071;51.478;5.710;2023-06-22T04:27:47;20.70;99.90
45339;DHT22;31071;51.478;5.710;2023-06-22T04:30:12;18.60;99.90
45339;DHT22;31071;51.478;5.710;2023-06-22T04:32:40;18.70;99.90
45339;DHT22;31071;51.478;5.710;2023-06-22T04:35:06;20.20;99.90
45339;DHT22;31071;51.478;5.710;2023-06-22T04:37:33;18.90;99.90
45339;DHT22;31071;51.478;5.710;2023-06-22T04:39:59;20.30;99.90
45339;DHT22;31071;51.478;5.710;2023-06-22T04:42:27;20.60;99.90
45339;DHT22;31071;51.478;5.710;2023-06-22T04:44:53;19.40;99.90
45339;DHT22;31071;51.478;5.710;2023-06-22T04:47:19;18.80;99.90
45339;DHT22;31071;51.478;5.710;2023-06-22T04:49:45;19.60;99.90
45339;DHT22;31071;51.478;5.710;2023-06-22T04:52:12;20.60;99.90
45339;DHT22;31071;51.478;5.710;2023-06-22T04:54:39;19.50;99.90
45339;DHT22;31071;51.478;5.710;2023-06-22T04:57:07;19.90;99.90
45339;DHT22;31071;51.478;5.710;2023-06-22T04:59:36;20.00;99.90
45339;DHT22;31071;51.478;5.710;2023-06-22T05:02:04;21.30;99.90
45339;DHT22;31071;51.478;5.710;2023-06-22T05:04:30;19.60;99.90
45339;DHT22;31071;51.478;5.710;2023-06-22T05:06:59;21.30;99.90
45339;DHT22;31071;51.478;5.710;2023-06-22T05:09:25;21.00;99.90
45339;DHT22;31071;51.478;5.710;2023-06-22T05:11:51;21.30;99.90
45339;DHT22;31071;51.478;5.710;2023-06-22T05:14:17;21.20;99.90
45339;DHT22;31071;51.478;5.710;2023-06-22T05:16:43;20.10;99.90
45339;DHT22;31071;51.478;5.710;2023-06-22T05:19:10;21.10;99.90
45339;DHT22;31071;51.478;5.710;2023-06-22T05:21:36;19.70;99.90
45339;DHT22;31071;51.478;5.710;2023-06-22T05:24:02;21.10;99.90
45339;DHT22;31071;51.478;5.710;2023-06-22T05:26:32;19.60;99.90
45339;DHT22;31071;51.478;5.710;2023-06-22T05:28:58;19.90;99.90
45339;DHT22;31071;51.478;5.710;2023-06-22T05:31:24;20.10;99.90
45339;DHT22;31071;51.478;5.710;2023-06-22T05:33:51;20.00;99.90
45339;DHT22;31071;51.478;5.710;2023-06-22T05:36:17;20.00;99.90
45339;DHT22;31071;51.478;5.710;2023-06-22T05:38:45;20.50;99.90
45339;DHT22;31071;51.478;5.710;2023-06-22T05:41:11;20.00;99.90
45339;DHT22;31071;51.478;5.710;2023-06-22T05:43:37;21.90;99.90
45339;DHT22;31071;51.478;5.710;2023-06-22T05:46:03;20.60;99.90
45339;DHT22;31071;51.478;5.710;2023-06-22T05:48:30;20.90;99.90
45339;DHT22;31071;51.478;5.710;2023-06-22T05:50:55;22.00;99.90
45339;DHT22;31071;51.478;5.710;2023-06-22T05:53:21;20.50;99.90
45339;DHT22;31071;51.478;5.710;2023-06-22T05:55:47;21.70;99.90
45339;DHT22;31071;51.478;5.710;2023-06-22T05:58:13;22.30;99.90
45339;DHT22;31071;51.478;5.710;2023-06-22T06:00:39;20.50;99.90
45339;DHT22;31071;51.478;5.710;2023-06-22T06:03:06;22.40;99.90
45339;DHT22;31071;51.478;5.710;2023-06-22T06:05:33;20.30;99.90
45339;DHT22;31071;51.478;5.710;2023-06-22T06:08:04;21.50;99.90
45339;DHT22;31071;51.478;5.710;2023-06-22T06:10:31;20.60;99.90
45339;DHT22;31071;51.478;5.710;2023-06-22T06:12:57;20.60;99.90
45339;DHT22;31071;51.478;5.710;2023-06-22T06:15:23;20.70;99.90
45339;DHT22;31071;51.478;5.710;2023-06-22T06:17:50;21.90;99.90
45339;DHT22;31071;51.478;5.710;2023-06-22T06:20:19;21.00;99.90
45339;DHT22;31071;51.478;5.710;2023-06-22T06:22:45;22.20;99.90
45339;DHT22;31071;51.478;5.710;2023-06-22T06:25:11;21.00;99.90
45339;DHT22;31071;51.478;5.710;2023-06-22T06:27:44;21.00;99.90
45339;DHT22;31071;51.478;5.710;2023-06-22T06:30:11;21.10;99.90
45339;DHT22;31071;51.478;5.710;2023-06-22T06:32:37;21.10;99.90
45339;DHT22;31071;51.478;5.710;2023-06-22T06:35:08;21.70;99.90
45339;DHT22;31071;51.478;5.710;2023-06-22T06:37:37;20.80;99.90
45339;DHT22;31071;51.478;5.710;2023-06-22T06:40:13;21.60;99.90
45339;DHT22;31071;51.478;5.710;2023-06-22T06:42:44;21.20;99.90
45339;DHT22;31071;51.478;5.710;2023-06-22T06:45:17;23.00;99.90
45339;DHT22;31071;51.478;5.710;2023-06-22T06:47:43;21.20;99.90
45339;DHT22;31071;51.478;5.710;2023-06-22T06:50:10;21.30;99.90
45339;DHT22;31071;51.478;5.710;2023-06-22T06:52:36;21.30;99.90
45339;DHT22;31071;51.478;5.710;2023-06-22T06:55:01;21.80;99.90
45339;DHT22;31071;51.478;5.710;2023-06-22T06:57:30;21.20;99.90
45339;DHT22;31071;51.478;5.710;2023-06-22T06:59:56;22.90;99.90
45339;DHT22;31071;51.478;5.710;2023-06-22T07:02:23;19.80;99.90
45339;DHT22;31071;51.478;5.710;2023-06-22T07:04:48;21.20;99.90
45339;DHT22;31071;51.478;5.710;2023-06-22T07:07:14;22.80;99.90
45339;DHT22;31071;51.478;5.710;2023-06-22T07:09:43;22.60;99.90
45339;DHT22;31071;51.478;5.710;2023-06-22T07:12:08;22.60;99.90
45339;DHT22;31071;51.478;5.710;2023-06-22T07:14:34;22.10;99.90
45339;DHT22;31071;51.478;5.710;2023-06-22T07:17:00;22.90;99.90
45339;DHT22;31071;51.478;5.710;2023-06-22T07:19:26;21.80;99.90
45339;DHT22;31071;51.478;5.710;2023-06-22T07:21:55;23.10;99.90
45339;DHT22;31071;51.478;5.710;2023-06-22T07:24:21;23.40;99.90
45339;DHT22;31071;51.478;5.710;2023-06-22T07:26:47;22.40;99.90
45339;DHT22;31071;51.478;5.710;2023-06-22T07:29:16;20.60;99.90
45339;DHT22;31071;51.478;5.710;2023-06-22T07:31:42;23.20;99.90
45339;DHT22;31071;51.478;5.710;2023-06-22T07:34:07;22.10;99.90
45339;DHT22;31071;51.478;5.710;2023-06-22T07:36:33;22.20;99.90
45339;DHT22;31071;51.478;5.710;2023-06-22T07:39:01;22.00;99.90
45339;DHT22;31071;51.478;5.710;2023-06-22T07:41:28;22.00;99.90
45339;DHT22;31071;51.478;5.710;2023-06-22T07:43:53;22.00;99.90
45339;DHT22;31071;51.478;5.710;2023-06-22T07:46:19;22.00;99.90
45339;DHT22;31071;51.478;5.710;2023-06-22T07:48:44;23.70;99.90
45339;DHT22;31071;51.478;5.710;2023-06-22T07:51:10;22.80;99.90
45339;DHT22;31071;51.478;5.710;2023-06-22T07:53:40;22.90;99.90
45339;DHT22;31071;51.478;5.710;2023-06-22T07:56:06;22.10;99.90
45339;DHT22;31071;51.478;5.710;2023-06-22T07:58:34;22.10;99.90
45339;DHT22;31071;51.478;5.710;2023-06-22T08:01:00;23.50;99.90
45339;DHT22;31071;51.478;5.710;2023-06-22T08:03:25;23.50;99.90
45339;DHT22;31071;51.478;5.710;2023-06-22T08:05:51;22.60;99.90
45339;DHT22;31071;51.478;5.710;2023-06-22T08:08:16;23.70;99.90
45339;DHT22;31071;51.478;5.710;2023-06-22T08:10:42;22.30;99.90
45339;DHT22;31071;51.478;5.710;2023-06-22T08:13:08;22.70;99.90
45339;DHT22;31071;51.478;5.710;2023-06-22T08:15:33;23.50;99.90
45339;DHT22;31071;51.478;5.710;2023-06-22T08:17:59;22.10;99.90
45339;DHT22;31071;51.478;5.710;2023-06-22T08:20:26;23.90;99.90
45339;DHT22;31071;51.478;5.710;2023-06-22T08:22:54;23.00;99.90
45339;DHT22;31071;51.478;5.710;2023-06-22T08:25:19;22.50;99.90
45339;DHT22;31071;51.478;5.710;2023-06-22T08:27:46;22.50;99.90
45339;DHT22;31071;51.478;5.710;2023-06-22T08:30:13;23.50;99.90
45339;DHT22;31071;51.478;5.710;2023-06-22T08:32:39;23.00;99.90
45339;DHT22;31071;51.478;5.710;2023-06-22T08:35:05;23.90;99.90
45339;DHT22;31071;51.478;5.710;2023-06-22T08:37:33;22.60;99.90
45339;DHT22;31071;51.478;5.710;2023-06-22T08:40:01;22.80;99.90
45339;DHT22;31071;51.478;5.710;2023-06-22T08:42:29;22.80;99.90
45339;DHT22;31071;51.478;5.710;2023-06-22T08:44:55;23.00;99.90
45339;DHT22;31071;51.478;5.710;2023-06-22T08:47:21;23.90;99.90
45339;DHT22;31071;51.478;5.710;2023-06-22T08:49:48;22.90;99.90
45339;DHT22;31071;51.478;5.710;2023-06-22T08:52:14;23.00;99.90
45339;DHT22;31071;51.478;5.710;2023-06-22T08:54:39;23.00;99.90
45339;DHT22;31071;51.478;5.710;2023-06-22T08:57:05;24.80;99.90
45339;DHT22;31071;51.478;5.710;2023-06-22T08:59:31;23.10;99.90
45339;DHT22;31071;51.478;5.710;2023-06-22T09:01:58;23.90;99.90
45339;DHT22;31071;51.478;5.710;2023-06-22T09:04:24;23.00;99.90
45339;DHT22;31071;51.478;5.710;2023-06-22T09:06:49;23.10;99.90
45339;DHT22;31071;51.478;5.710;2023-06-22T09:09:18;23.60;99.90
45339;DHT22;31071;51.478;5.710;2023-06-22T09:11:43;23.30;99.90
45339;DHT22;31071;51.478;5.710;2023-06-22T09:14:10;24.70;99.90
45339;DHT22;31071;51.478;5.710;2023-06-22T09:16:35;23.00;99.90
45339;DHT22;31071;51.478;5.710;2023-06-22T09:19:01;23.20;99.90
45339;DHT22;31071;51.478;5.710;2023-06-22T09:21:27;23.10;99.90
45339;DHT22;31071;51.478;5.710;2023-06-22T09:23:52;23.20;99.90
45339;DHT22;31071;51.478;5.710;2023-06-22T09:26:18;24.60;99.90
45339;DHT22;31071;51.478;5.710;2023-06-22T09:28:46;23.10;99.90
45339;DHT22;31071;51.478;5.710;2023-06-22T09:31:11;23.10;99.90
45339;DHT22;31071;51.478;5.710;2023-06-22T09:33:37;23.40;99.90
45339;DHT22;31071;51.478;5.710;2023-06-22T09:36:06;23.30;99.90
45339;DHT22;31071;51.478;5.710;2023-06-22T09:38:41;23.20;99.90
45339;DHT22;31071;51.478;5.710;2023-06-22T09:41:07;24.60;99.90
45339;DHT22;31071;51.478;5.710;2023-06-22T09:43:33;23.40;99.90
45339;DHT22;31071;51.478;5.710;2023-06-22T09:46:02;23.50;99.90
45339;DHT22;31071;51.478;5.710;2023-06-22T09:48:28;24.40;99.90
45339;DHT22;31071;51.478;5.710;2023-06-22T09:50:55;24.20;99.90
45339;DHT22;31071;51.478;5.710;2023-06-22T09:53:21;24.90;99.90
45339;DHT22;31071;51.478;5.710;2023-06-22T09:55:47;23.80;99.90
45339;DHT22;31071;51.478;5.710;2023-06-22T09:58:12;23.20;99.90
45339;DHT22;31071;51.478;5.710;2023-06-22T10:00:38;25.00;99.90
45339;DHT22;31071;51.478;5.710;2023-06-22T10:03:03;23.70;99.90
45339;DHT22;31071;51.478;5.710;2023-06-22T10:05:29;23.80;99.90
45339;DHT22;31071;51.478;5.710;2023-06-22T10:07:55;24.40;99.90
45339;DHT22;31071;51.478;5.710;2023-06-22T10:10:20;25.00;99.90
45339;DHT22;31071;51.478;5.710;2023-06-22T10:12:47;23.90;99.90
45339;DHT22;31071;51.478;5.710;2023-06-22T10:15:14;24.40;99.90
45339;DHT22;31071;51.478;5.710;2023-06-22T10:17:40;24.20;99.90
45339;DHT22;31071;51.478;5.710;2023-06-22T10:20:06;24.30;99.90
45339;DHT22;31071;51.478;5.710;2023-06-22T10:22:39;23.90;99.90
45339;DHT22;31071;51.478;5.710;2023-06-22T10:25:05;23.00;99.90
45339;DHT22;31071;51.478;5.710;2023-06-22T10:27:30;23.80;99.90
45339;DHT22;31071;51.478;5.710;2023-06-22T10:29:57;23.80;99.90
45339;DHT22;31071;51.478;5.710;2023-06-22T10:32:22;24.70;99.90
45339;DHT22;31071;51.478;5.710;2023-06-22T10:34:48;23.60;99.90
45339;DHT22;31071;51.478;5.710;2023-06-22T10:37:15;24.60;99.90
45339;DHT22;31071;51.478;5.710;2023-06-22T10:39:41;22.10;99.90
45339;DHT22;31071;51.478;5.710;2023-06-22T10:42:13;23.30;99.90
45339;DHT22;31071;51.478;5.710;2023-06-22T10:44:39;23.30;99.90
45339;DHT22;31071;51.478;5.710;2023-06-22T10:47:06;23.20;99.90
45339;DHT22;31071;51.478;5.710;2023-06-22T10:49:32;22.80;99.90
45339;DHT22;31071;51.478;5.710;2023-06-22T10:51:57;22.50;99.90
45339;DHT22;31071;51.478;5.710;2023-06-22T10:54:23;22.40;99.90
45339;DHT22;31071;51.478;5.710;2023-06-22T10:56:48;22.10;99.90
45339;DHT22;31071;51.478;5.710;2023-06-22T10:59:14;21.80;99.90
45339;DHT22;31071;51.478;5.710;2023-06-22T11:01:40;21.60;99.90
45339;DHT22;31071;51.478;5.710;2023-06-22T11:04:05;21.50;99.90
45339;DHT22;31071;51.478;5.710;2023-06-22T11:06:31;21.40;99.90
45339;DHT22;31071;51.478;5.710;2023-06-22T11:08:57;21.20;99.90
45339;DHT22;31071;51.478;5.710;2023-06-22T11:11:25;21.00;99.90
45339;DHT22;31071;51.478;5.710;2023-06-22T11:13:52;20.80;99.90
45339;DHT22;31071;51.478;5.710;2023-06-22T11:16:18;20.60;99.90
45339;DHT22;31071;51.478;5.710;2023-06-22T11:29:00;19.70;99.90
45339;DHT22;31071;51.478;5.710;2023-06-22T11:31:36;21.40;99.90
45339;DHT22;31071;51.478;5.710;2023-06-22T11:34:18;21.40;99.90
45339;DHT22;31071;51.478;5.710;2023-06-22T11:36:44;21.20;99.90
45339;DHT22;31071;51.478;5.710;2023-06-22T11:39:10;20.60;99.90
45339;DHT22;31071;51.478;5.710;2023-06-22T11:41:37;19.90;99.90
45339;DHT22;31071;51.478;5.710;2023-06-22T11:44:02;19.70;99.90
45339;DHT22;31071;51.478;5.710;2023-06-22T11:46:29;19.70;99.90
45339;DHT22;31071;51.478;5.710;2023-06-22T11:48:55;21.50;99.90
45339;DHT22;31071;51.478;5.710;2023-06-22T11:51:21;19.70;99.90
45339;DHT22;31071;51.478;5.710;2023-06-22T11:53:47;19.40;99.90
45339;DHT22;31071;51.478;5.710;2023-06-22T11:56:12;20.80;99.90
45339;DHT22;31071;51.478;5.710;2023-06-22T11:58:38;21.30;99.90
45339;DHT22;31071;51.478;5.710;2023-06-22T12:01:03;19.10;99.90
45339;DHT22;31071;51.478;5.710;2023-06-22T12:03:30;20.90;99.90
45339;DHT22;31071;51.478;5.710;2023-06-22T12:05:55;20.20;99.90
45339;DHT22;31071;51.478;5.710;2023-06-22T12:08:21;21.20;99.90
45339;DHT22;31071;51.478;5.710;2023-06-22T12:10:47;19.50;99.90
45339;DHT22;31071;51.478;5.710;2023-06-22T12:13:13;20.80;99.90
45339;DHT22;31071;51.478;5.710;2023-06-22T12:15:38;20.40;99.90
45339;DHT22;31071;51.478;5.710;2023-06-22T12:18:04;21.00;99.90
45339;DHT22;31071;51.478;5.710;2023-06-22T12:20:30;19.20;99.90
45339;DHT22;31071;51.478;5.710;2023-06-22T12:22:55;20.10;99.90
45339;DHT22;31071;51.478;5.710;2023-06-22T12:25:23;20.40;99.90
45339;DHT22;31071;51.478;5.710;2023-06-22T12:27:49;20.00;99.90
45339;DHT22;31071;51.478;5.710;2023-06-22T12:30:16;20.40;99.90
45339;DHT22;31071;51.478;5.710;2023-06-22T12:32:41;20.50;99.90
45339;DHT22;31071;51.478;5.710;2023-06-22T12:35:07;19.30;99.90
45339;DHT22;31071;51.478;5.710;2023-06-22T12:37:39;19.30;99.90
45339;DHT22;31071;51.478;5.710;2023-06-22T12:40:05;19.90;99.90
45339;DHT22;31071;51.478;5.710;2023-06-22T12:42:30;19.30;99.90
45339;DHT22;31071;51.478;5.710;2023-06-22T12:44:56;20.40;99.90
45339;DHT22;31071;51.478;5.710;2023-06-22T12:47:22;19.60;99.90
45339;DHT22;31071;51.478;5.710;2023-06-22T12:49:47;19.80;99.90
45339;DHT22;31071;51.478;5.710;2023-06-22T12:52:13;19.70;99.90
45339;DHT22;31071;51.478;5.710;2023-06-22T12:54:38;20.60;99.90
45339;DHT22;31071;51.478;5.710;2023-06-22T12:57:04;19.90;99.90
45339;DHT22;31071;51.478;5.710;2023-06-22T12:59:30;19.70;99.90
45339;DHT22;31071;51.478;5.710;2023-06-22T13:01:55;19.80;99.90
45339;DHT22;31071;51.478;5.710;2023-06-22T13:04:21;21.40;99.90
45339;DHT22;31071;51.478;5.710;2023-06-22T13:06:47;20.70;99.90
45339;DHT22;31071;51.478;5.710;2023-06-22T13:09:14;20.20;99.90
45339;DHT22;31071;51.478;5.710;2023-06-22T13:11:40;20.00;99.90
45339;DHT22;31071;51.478;5.710;2023-06-22T13:14:06;21.30;99.90
45339;DHT22;31071;51.478;5.710;2023-06-22T13:16:31;20.40;99.90
45339;DHT22;31071;51.478;5.710;2023-06-22T13:18:57;19.90;99.90
45339;DHT22;31071;51.478;5.710;2023-06-22T13:21:25;19.70;99.90
45339;DHT22;31071;51.478;5.710;2023-06-22T13:23:51;20.10;99.90
45339;DHT22;31071;51.478;5.710;2023-06-22T13:26:16;19.80;99.90
45339;DHT22;31071;51.478;5.710;2023-06-22T13:28:42;19.80;99.90
45339;DHT22;31071;51.478;5.710;2023-06-22T13:31:07;19.80;99.90
45339;DHT22;31071;51.478;5.710;2023-06-22T13:33:33;19.80;99.90
45339;DHT22;31071;51.478;5.710;2023-06-22T13:35:58;19.80;99.90
45339;DHT22;31071;51.478;5.710;2023-06-22T13:38:24;19.80;99.90
45339;DHT22;31071;51.478;5.710;2023-06-22T13:40:50;19.80;99.90
45339;DHT22;31071;51.478;5.710;2023-06-22T13:43:15;19.80;99.90
45339;DHT22;31071;51.478;5.710;2023-06-22T13:45:41;19.80;99.90
45339;DHT22;31071;51.478;5.710;2023-06-22T13:48:07;19.80;99.90
45339;DHT22;31071;51.478;5.710;2023-06-22T13:50:33;19.70;99.90
45339;DHT22;31071;51.478;5.710;2023-06-22T13:52:59;19.60;99.90
45339;DHT22;31071;51.478;5.710;2023-06-22T13:55:24;19.60;99.90
45339;DHT22;31071;51.478;5.710;2023-06-22T13:57:50;19.50;99.90
45339;DHT22;31071;51.478;5.710;2023-06-22T14:00:16;19.50;99.90
45339;DHT22;31071;51.478;5.710;2023-06-22T14:02:42;19.40;99.90
45339;DHT22;31071;51.478;5.710;2023-06-22T14:05:08;19.40;99.90
45339;DHT22;31071;51.478;5.710;2023-06-22T14:07:34;19.40;99.90
45339;DHT22;31071;51.478;5.710;2023-06-22T14:10:01;19.40;99.90
45339;DHT22;31071;51.478;5.710;2023-06-22T14:12:30;19.40;99.90
45339;DHT22;31071;51.478;5.710;2023-06-22T14:14:58;19.30;99.90
45339;DHT22;31071;51.478;5.710;2023-06-22T14:17:23;19.30;99.90
45339;DHT22;31071;51.478;5.710;2023-06-22T14:19:52;19.10;99.90
45339;DHT22;31071;51.478;5.710;2023-06-22T14:22:21;20.00;99.90
45339;DHT22;31071;51.478;5.710;2023-06-22T14:24:48;18.50;99.90
45339;DHT22;31071;51.478;5.710;2023-06-22T14:27:37;17.90;99.90
45339;DHT22;31071;51.478;5.710;2023-06-22T14:30:02;18.90;99.90
45339;DHT22;31071;51.478;5.710;2023-06-22T14:32:28;18.90;99.90
45339;DHT22;31071;51.478;5.710;2023-06-22T14:34:55;18.70;99.90
45339;DHT22;31071;51.478;5.710;2023-06-22T14:37:21;18.70;99.90
45339;DHT22;31071;51.478;5.710;2023-06-22T14:39:46;18.80;99.90
45339;DHT22;31071;51.478;5.710;2023-06-22T14:42:12;20.10;99.90
45339;DHT22;31071;51.478;5.710;2023-06-22T14:44:38;18.90;99.90
45339;DHT22;31071;51.478;5.710;2023-06-22T14:47:03;16.90;99.90
45339;DHT22;31071;51.478;5.710;2023-06-22T14:49:29;18.50;99.90
45339;DHT22;31071;51.478;5.710;2023-06-22T14:51:55;18.40;99.90
45339;DHT22;31071;51.478;5.710;2023-06-22T14:54:21;19.20;99.90
45339;DHT22;31071;51.478;5.710;2023-06-22T14:56:47;19.30;99.90
45339;DHT22;31071;51.478;5.710;2023-06-22T14:59:13;18.20;99.90
45339;DHT22;31071;51.478;5.710;2023-06-22T15:01:39;18.30;99.90
45339;DHT22;31071;51.478;5.710;2023-06-22T15:04:05;18.30;99.90
45339;DHT22;31071;51.478;5.710;2023-06-22T15:06:31;18.20;99.90
45339;DHT22;31071;51.478;5.710;2023-06-22T15:11:48;19.10;99.90
45339;DHT22;31071;51.478;5.710;2023-06-22T15:14:21;19.80;99.90
45339;DHT22;31071;51.478;5.710;2023-06-22T15:17:14;18.20;99.90
45339;DHT22;31071;51.478;5.710;2023-06-22T15:19:41;18.10;99.90
45339;DHT22;31071;51.478;5.710;2023-06-22T15:22:07;19.40;99.90
45339;DHT22;31071;51.478;5.710;2023-06-22T15:29:50;18.20;99.90
45339;DHT22;31071;51.478;5.710;2023-06-22T15:32:16;19.90;99.90
45339;DHT22;31071;51.478;5.710;2023-06-22T15:38:09;18.30;99.90
45339;DHT22;31071;51.478;5.710;2023-06-22T15:40:42;18.20;99.90
45339;DHT22;31071;51.478;5.710;2023-06-22T15:43:11;19.40;99.90
45339;DHT22;31071;51.478;5.710;2023-06-22T15:45:39;18.50;99.90
45339;DHT22;31071;51.478;5.710;2023-06-22T15:48:07;17.80;99.90
45339;DHT22;31071;51.478;5.710;2023-06-22T15:50:36;18.30;99.90
45339;DHT22;31071;51.478;5.710;2023-06-22T15:53:02;18.20;99.90
45339;DHT22;31071;51.478;5.710;2023-06-22T15:55:31;16.70;99.90